Time;durP1;ratioP1;P1;durP2;ratioP2;P2;SDS_P1;SDS_P2;PMS_P1;PMS_P2;Temp;Humidity;BMP_temperature;BMP_pressure;BME280_temperature;BME280_humidity;BME280_pressure;Samples;Min_cycle;Max_cycle;Signal;HPM_P1;HPM_P2
2021/01/26 00:00:07;;;;;;;10.75;7.3;;;;;;;-0.84;100;94660.97;;;;
2021/01/26 00:01:12;;;;;;;10.75;7.3;;;;;;;-0.84;100;94660.97;;;;
2021/01/26 00:02:13;;;;;;;10.75;7.3;;;;;;;-0.84;100;94660.97;;;;
2021/01/26 00:03:14;;;;;;;10.75;7.3;;;;;;;-0.84;100;94660.97;;;;
2021/01/26 00:04:14;;;;;;;10.75;7.3;;;;;;;-0.84;100;94660.97;;;;
2021/01/26 00:05:15;;;;;;;10.75;7.3;;;;;;;-0.84;100;94660.97;;;;
2021/01/26 00:06:16;;;;;;;11.85;7.75;;;;;;;-0.76;100;94673.24;;;;
2021/01/26 00:07:17;;;;;;;11.85;7.75;;;;;;;-0.76;100;94673.24;;;;
2021/01/26 00:08:17;;;;;;;11.85;7.75;;;;;;;-0.76;100;94673.24;;;;
2021/01/26 00:09:18;;;;;;;11.85;7.75;;;;;;;-0.76;100;94673.24;;;;
2021/01/26 00:10:19;;;;;;;11.85;7.75;;;;;;;-0.76;100;94673.24;;;;
2021/01/26 00:11:19;;;;;;;11.85;7.75;;;;;;;-0.76;100;94673.24;;;;
2021/01/26 00:12:20;;;;;;;11.85;7.75;;;;;;;-0.76;100;94673.24;;;;
2021/01/26 00:13:21;;;;;;;11.85;7.75;;;;;;;-0.76;100;94673.24;;;;
2021/01/26 00:14:21;;;;;;;11.85;7.75;;;;;;;-0.76;100;94673.24;;;;
2021/01/26 00:15:22;;;;;;;11.85;7.75;;;;;;;-0.76;100;94673.24;;;;
2021/01/26 00:16:23;;;;;;;11.85;7.75;;;;;;;-0.76;100;94673.24;;;;
2021/01/26 00:17:23;;;;;;;10.55;7.15;;;;;;;-0.69;100;94675.06;;;;
2021/01/26 00:18:23;;;;;;;10.55;7.15;;;;;;;-0.69;100;94675.06;;;;
2021/01/26 00:19:24;;;;;;;10.55;7.15;;;;;;;-0.69;100;94675.06;;;;
2021/01/26 00:20:24;;;;;;;10.55;7.15;;;;;;;-0.69;100;94675.06;;;;
2021/01/26 00:21:26;;;;;;;10.55;7.15;;;;;;;-0.69;100;94675.06;;;;
2021/01/26 00:22:26;;;;;;;10.55;7.15;;;;;;;-0.69;100;94675.06;;;;
2021/01/26 00:23:27;;;;;;;10.55;7.15;;;;;;;-0.69;100;94675.06;;;;
2021/01/26 00:24:27;;;;;;;10.55;7.15;;;;;;;-0.69;100;94675.06;;;;
2021/01/26 00:25:28;;;;;;;10.55;7.15;;;;;;;-0.69;100;94675.06;;;;
2021/01/26 00:26:32;;;;;;;10.55;7.15;;;;;;;-0.69;100;94675.06;;;;
2021/01/26 00:27:33;;;;;;;10.8;7.000001;;;;;;;-0.56;100;94680.56;;;;
2021/01/26 00:28:34;;;;;;;10.8;7.000001;;;;;;;-0.56;100;94680.56;;;;
2021/01/26 00:29:34;;;;;;;10.8;7.000001;;;;;;;-0.56;100;94680.56;;;;
2021/01/26 00:30:35;;;;;;;10.8;7.000001;;;;;;;-0.56;100;94680.56;;;;
2021/01/26 00:31:37;;;;;;;10.8;7.000001;;;;;;;-0.56;100;94680.56;;;;
2021/01/26 00:32:38;;;;;;;10.8;7.000001;;;;;;;-0.56;100;94680.56;;;;
2021/01/26 00:33:38;;;;;;;10.8;7.000001;;;;;;;-0.56;100;94680.56;;;;
2021/01/26 00:34:39;;;;;;;10.8;7.000001;;;;;;;-0.56;100;94680.56;;;;
2021/01/26 00:35:39;;;;;;;10.8;7.000001;;;;;;;-0.56;100;94680.56;;;;
2021/01/26 00:36:40;;;;;;;10.8;7.000001;;;;;;;-0.56;100;94680.56;;;;
2021/01/26 00:37:41;;;;;;;10.8;7.000001;;;;;;;-0.56;100;94680.56;;;;
2021/01/26 00:38:42;;;;;;;12.05;8.100001;;;;;;;-0.52;100;94684.46;;;;
2021/01/26 00:39:42;;;;;;;12.05;8.100001;;;;;;;-0.52;100;94684.46;;;;
2021/01/26 00:40:43;;;;;;;12.05;8.100001;;;;;;;-0.52;100;94684.46;;;;
2021/01/26 00:41:43;;;;;;;12.05;8.100001;;;;;;;-0.52;100;94684.46;;;;
2021/01/26 00:42:44;;;;;;;12.05;8.100001;;;;;;;-0.52;100;94684.46;;;;
2021/01/26 00:43:45;;;;;;;12.05;8.100001;;;;;;;-0.52;100;94684.46;;;;
2021/01/26 00:44:45;;;;;;;12.05;8.100001;;;;;;;-0.52;100;94684.46;;;;
2021/01/26 00:45:46;;;;;;;12.05;8.100001;;;;;;;-0.52;100;94684.46;;;;
2021/01/26 00:46:46;;;;;;;12.05;8.100001;;;;;;;-0.52;100;94684.46;;;;
2021/01/26 00:47:47;;;;;;;12.05;8.100001;;;;;;;-0.52;100;94684.46;;;;
2021/01/26 00:48:48;;;;;;;12.05;8.100001;;;;;;;-0.52;100;94684.46;;;;
2021/01/26 00:49:48;;;;;;;11.75;8.099999;;;;;;;-0.42;100;94690.83;;;;
2021/01/26 00:50:49;;;;;;;11.75;8.099999;;;;;;;-0.42;100;94690.83;;;;
2021/01/26 00:51:49;;;;;;;11.75;8.099999;;;;;;;-0.42;100;94690.83;;;;
2021/01/26 00:52:50;;;;;;;11.75;8.099999;;;;;;;-0.42;100;94690.83;;;;
2021/01/26 00:53:50;;;;;;;11.75;8.099999;;;;;;;-0.42;100;94690.83;;;;
2021/01/26 00:54:51;;;;;;;11.75;8.099999;;;;;;;-0.42;100;94690.83;;;;
2021/01/26 00:55:51;;;;;;;11.75;8.099999;;;;;;;-0.42;100;94690.83;;;;
2021/01/26 00:56:52;;;;;;;11.75;8.099999;;;;;;;-0.42;100;94690.83;;;;
2021/01/26 00:57:52;;;;;;;11.75;8.099999;;;;;;;-0.42;100;94690.83;;;;
2021/01/26 00:58:53;;;;;;;11.75;8.099999;;;;;;;-0.42;100;94690.83;;;;
2021/01/26 00:59:53;;;;;;;12.5;8.300001;;;;;;;-0.36;100;94701.5;;;;
2021/01/26 01:00:54;;;;;;;12.5;8.300001;;;;;;;-0.36;100;94701.5;;;;
2021/01/26 01:01:55;;;;;;;12.5;8.300001;;;;;;;-0.36;100;94701.5;;;;
2021/01/26 01:02:56;;;;;;;12.5;8.300001;;;;;;;-0.36;100;94701.5;;;;
2021/01/26 01:03:56;;;;;;;12.5;8.300001;;;;;;;-0.36;100;94701.5;;;;
2021/01/26 01:04:57;;;;;;;12.5;8.300001;;;;;;;-0.36;100;94701.5;;;;
2021/01/26 01:05:57;;;;;;;12.5;8.300001;;;;;;;-0.36;100;94701.5;;;;
2021/01/26 01:06:58;;;;;;;12.5;8.300001;;;;;;;-0.36;100;94701.5;;;;
2021/01/26 01:07:58;;;;;;;12.5;8.300001;;;;;;;-0.36;100;94701.5;;;;
2021/01/26 01:09:00;;;;;;;12.5;8.300001;;;;;;;-0.36;100;94701.5;;;;
2021/01/26 01:10:00;;;;;;;12.5;8.300001;;;;;;;-0.36;100;94701.5;;;;
2021/01/26 01:11:01;;;;;;;11.85;7.700001;;;;;;;-0.32;100;94719.23;;;;
2021/01/26 01:12:01;;;;;;;11.85;7.700001;;;;;;;-0.32;100;94719.23;;;;
2021/01/26 01:13:03;;;;;;;11.85;7.700001;;;;;;;-0.32;100;94719.23;;;;
2021/01/26 01:14:04;;;;;;;11.85;7.700001;;;;;;;-0.32;100;94719.23;;;;
2021/01/26 01:15:05;;;;;;;11.85;7.700001;;;;;;;-0.32;100;94719.23;;;;
2021/01/26 01:16:07;;;;;;;11.85;7.700001;;;;;;;-0.32;100;94719.23;;;;
2021/01/26 01:17:08;;;;;;;11.85;7.700001;;;;;;;-0.32;100;94719.23;;;;
2021/01/26 01:18:09;;;;;;;11.85;7.700001;;;;;;;-0.32;100;94719.23;;;;
2021/01/26 01:19:10;;;;;;;11.85;7.700001;;;;;;;-0.32;100;94719.23;;;;
2021/01/26 01:20:10;;;;;;;11.85;7.700001;;;;;;;-0.32;100;94719.23;;;;
2021/01/26 01:21:14;;;;;;;12.9;8.049999;;;;;;;-0.38;100;94725.25;;;;
2021/01/26 01:22:15;;;;;;;12.9;8.049999;;;;;;;-0.38;100;94725.25;;;;
2021/01/26 01:23:15;;;;;;;12.9;8.049999;;;;;;;-0.38;100;94725.25;;;;
2021/01/26 01:24:16;;;;;;;12.9;8.049999;;;;;;;-0.38;100;94725.25;;;;
2021/01/26 01:25:16;;;;;;;12.9;8.049999;;;;;;;-0.38;100;94725.25;;;;
2021/01/26 01:26:17;;;;;;;12.9;8.049999;;;;;;;-0.38;100;94725.25;;;;
2021/01/26 01:27:18;;;;;;;12.9;8.049999;;;;;;;-0.38;100;94725.25;;;;
2021/01/26 01:28:18;;;;;;;12.9;8.049999;;;;;;;-0.38;100;94725.25;;;;
2021/01/26 01:29:19;;;;;;;12.9;8.049999;;;;;;;-0.38;100;94725.25;;;;
2021/01/26 01:30:19;;;;;;;12.9;8.049999;;;;;;;-0.38;100;94725.25;;;;
2021/01/26 01:31:23;;;;;;;12.9;8.049999;;;;;;;-0.38;100;94725.25;;;;
2021/01/26 01:32:23;;;;;;;11.75;7.85;;;;;;;-0.41;100;94738.89;;;;
2021/01/26 01:33:24;;;;;;;11.75;7.85;;;;;;;-0.41;100;94738.89;;;;
2021/01/26 01:34:25;;;;;;;11.75;7.85;;;;;;;-0.41;100;94738.89;;;;
2021/01/26 01:35:25;;;;;;;11.75;7.85;;;;;;;-0.41;100;94738.89;;;;
2021/01/26 01:36:27;;;;;;;11.75;7.85;;;;;;;-0.41;100;94738.89;;;;
2021/01/26 01:37:27;;;;;;;11.75;7.85;;;;;;;-0.41;100;94738.89;;;;
2021/01/26 01:38:28;;;;;;;11.75;7.85;;;;;;;-0.41;100;94738.89;;;;
2021/01/26 01:39:28;;;;;;;11.75;7.85;;;;;;;-0.41;100;94738.89;;;;
2021/01/26 01:40:29;;;;;;;11.75;7.85;;;;;;;-0.41;100;94738.89;;;;
2021/01/26 01:41:33;;;;;;;11.75;7.85;;;;;;;-0.41;100;94738.89;;;;
2021/01/26 01:42:36;;;;;;;12.35;7.5;;;;;;;-0.37;100;94743.21;;;;
2021/01/26 01:43:37;;;;;;;12.35;7.5;;;;;;;-0.37;100;94743.21;;;;
2021/01/26 01:44:38;;;;;;;12.35;7.5;;;;;;;-0.37;100;94743.21;;;;
2021/01/26 01:45:38;;;;;;;12.35;7.5;;;;;;;-0.37;100;94743.21;;;;
2021/01/26 01:46:39;;;;;;;12.35;7.5;;;;;;;-0.37;100;94743.21;;;;
2021/01/26 01:47:43;;;;;;;12.35;7.5;;;;;;;-0.37;100;94743.21;;;;
2021/01/26 01:48:47;;;;;;;12.35;7.5;;;;;;;-0.37;100;94743.21;;;;
2021/01/26 01:49:48;;;;;;;12.35;7.5;;;;;;;-0.37;100;94743.21;;;;
2021/01/26 01:50:49;;;;;;;12.35;7.5;;;;;;;-0.37;100;94743.21;;;;
2021/01/26 01:51:53;;;;;;;12.35;7.5;;;;;;;-0.37;100;94743.21;;;;
2021/01/26 01:52:55;;;;;;;10.7;7.9;;;;;;;-0.34;100;94753.44;;;;
2021/01/26 01:54:01;;;;;;;10.7;7.9;;;;;;;-0.34;100;94753.44;;;;
2021/01/26 01:55:08;;;;;;;10.7;7.9;;;;;;;-0.34;100;94753.44;;;;
2021/01/26 01:56:14;;;;;;;10.7;7.9;;;;;;;-0.34;100;94753.44;;;;
2021/01/26 01:57:18;;;;;;;10.7;7.9;;;;;;;-0.34;100;94753.44;;;;
2021/01/26 01:58:25;;;;;;;10.7;7.9;;;;;;;-0.34;100;94753.44;;;;
2021/01/26 01:59:30;;;;;;;10.7;7.9;;;;;;;-0.34;100;94753.44;;;;
2021/01/26 02:00:37;;;;;;;10.7;7.9;;;;;;;-0.34;100;94753.44;;;;
2021/01/26 02:01:38;;;;;;;10.7;7.9;;;;;;;-0.34;100;94753.44;;;;
2021/01/26 02:02:38;;;;;;;10.7;7.9;;;;;;;-0.34;100;94753.44;;;;
2021/01/26 02:03:42;;;;;;;11.3;7.700001;;;;;;;-0.4;100;94771.84;;;;
2021/01/26 02:04:47;;;;;;;11.3;7.700001;;;;;;;-0.4;100;94771.84;;;;
2021/01/26 02:05:47;;;;;;;11.3;7.700001;;;;;;;-0.4;100;94771.84;;;;
2021/01/26 02:06:50;;;;;;;11.3;7.700001;;;;;;;-0.4;100;94771.84;;;;
2021/01/26 02:07:53;;;;;;;11.3;7.700001;;;;;;;-0.4;100;94771.84;;;;
2021/01/26 02:08:55;;;;;;;11.3;7.700001;;;;;;;-0.4;100;94771.84;;;;
2021/01/26 02:10:03;;;;;;;11.3;7.700001;;;;;;;-0.4;100;94771.84;;;;
2021/01/26 02:11:04;;;;;;;11.3;7.700001;;;;;;;-0.4;100;94771.84;;;;
2021/01/26 02:12:05;;;;;;;11.3;7.700001;;;;;;;-0.4;100;94771.84;;;;
2021/01/26 02:13:08;;;;;;;11.3;7.700001;;;;;;;-0.4;100;94771.84;;;;
2021/01/26 02:14:08;;;;;;;11.3;7.700001;;;;;;;-0.4;100;94771.84;;;;
2021/01/26 02:15:10;;;;;;;10.55;7;;;;;;;-0.45;100;94772.06;;;;
2021/01/26 02:16:12;;;;;;;10.55;7;;;;;;;-0.45;100;94772.06;;;;
2021/01/26 02:17:26;;;;;;;10.55;7;;;;;;;-0.45;100;94772.06;;;;
2021/01/26 02:18:42;;;;;;;10.55;7;;;;;;;-0.45;100;94772.06;;;;
2021/01/26 02:19:58;;;;;;;10.55;7;;;;;;;-0.45;100;94772.06;;;;
2021/01/26 02:21:24;;;;;;;10.55;7;;;;;;;-0.45;100;94772.06;;;;
2021/01/26 02:23:09;;;;;;;10.55;7;;;;;;;-0.45;100;94772.06;;;;
2021/01/26 02:24:23;;;;;;;10.55;7;;;;;;;-0.45;100;94772.06;;;;
2021/01/26 02:26:04;;;;;;;12.1;8.049999;;;;;;;-0.49;100;94787.94;;;;
2021/01/26 02:28:09;;;;;;;12.1;8.049999;;;;;;;-0.49;100;94787.94;;;;
2021/01/26 02:29:30;;;;;;;12.1;8.049999;;;;;;;-0.49;100;94787.94;;;;
2021/01/26 02:30:55;;;;;;;12.1;8.049999;;;;;;;-0.49;100;94787.94;;;;
2021/01/26 02:32:15;;;;;;;12.1;8.049999;;;;;;;-0.49;100;94787.94;;;;
2021/01/26 02:33:23;;;;;;;12.1;8.049999;;;;;;;-0.49;100;94787.94;;;;
2021/01/26 02:35:19;;;;;;;12.1;8.049999;;;;;;;-0.49;100;94787.94;;;;
2021/01/26 02:36:40;;;;;;;14;8.75;;;;;;;-0.51;100;94805.84;;;;
2021/01/26 02:38:01;;;;;;;14;8.75;;;;;;;-0.51;100;94805.84;;;;
2021/01/26 02:39:29;;;;;;;14;8.75;;;;;;;-0.51;100;94805.84;;;;
2021/01/26 02:40:34;;;;;;;14;8.75;;;;;;;-0.51;100;94805.84;;;;
2021/01/26 02:41:41;;;;;;;14;8.75;;;;;;;-0.51;100;94805.84;;;;
2021/01/26 02:42:48;;;;;;;14;8.75;;;;;;;-0.51;100;94805.84;;;;
2021/01/26 02:43:58;;;;;;;14;8.75;;;;;;;-0.51;100;94805.84;;;;
2021/01/26 02:45:06;;;;;;;14;8.75;;;;;;;-0.51;100;94805.84;;;;
2021/01/26 02:46:30;;;;;;;12.1;7.900001;;;;;;;-0.5;100;94818.58;;;;
2021/01/26 02:47:42;;;;;;;12.1;7.900001;;;;;;;-0.5;100;94818.58;;;;
2021/01/26 02:48:53;;;;;;;12.1;7.900001;;;;;;;-0.5;100;94818.58;;;;
2021/01/26 02:50:09;;;;;;;12.1;7.900001;;;;;;;-0.5;100;94818.58;;;;
2021/01/26 02:51:16;;;;;;;12.1;7.900001;;;;;;;-0.5;100;94818.58;;;;
2021/01/26 02:52:29;;;;;;;12.1;7.900001;;;;;;;-0.5;100;94818.58;;;;
2021/01/26 02:53:34;;;;;;;12.1;7.900001;;;;;;;-0.5;100;94818.58;;;;
2021/01/26 02:54:47;;;;;;;12.1;7.900001;;;;;;;-0.5;100;94818.58;;;;
2021/01/26 02:55:57;;;;;;;12.1;7.900001;;;;;;;-0.5;100;94818.58;;;;
2021/01/26 02:57:04;;;;;;;12.1;7.95;;;;;;;-0.5;100;94821.64;;;;
2021/01/26 02:58:11;;;;;;;12.1;7.95;;;;;;;-0.5;100;94821.64;;;;
2021/01/26 02:59:19;;;;;;;12.1;7.95;;;;;;;-0.5;100;94821.64;;;;
2021/01/26 03:00:27;;;;;;;12.1;7.95;;;;;;;-0.5;100;94821.64;;;;
2021/01/26 03:01:31;;;;;;;12.1;7.95;;;;;;;-0.5;100;94821.64;;;;
2021/01/26 03:02:37;;;;;;;12.1;7.95;;;;;;;-0.5;100;94821.64;;;;
2021/01/26 03:03:40;;;;;;;12.1;7.95;;;;;;;-0.5;100;94821.64;;;;
2021/01/26 03:04:46;;;;;;;12.1;7.95;;;;;;;-0.5;100;94821.64;;;;
2021/01/26 03:05:51;;;;;;;12.1;7.95;;;;;;;-0.5;100;94821.64;;;;
2021/01/26 03:06:57;;;;;;;12.1;7.95;;;;;;;-0.5;100;94821.64;;;;
2021/01/26 03:08:00;;;;;;;13.15;8.15;;;;;;;-0.6;100;94840.06;;;;
2021/01/26 03:09:08;;;;;;;13.15;8.15;;;;;;;-0.6;100;94840.06;;;;
2021/01/26 03:10:13;;;;;;;13.15;8.15;;;;;;;-0.6;100;94840.06;;;;
2021/01/26 03:11:18;;;;;;;13.15;8.15;;;;;;;-0.6;100;94840.06;;;;
2021/01/26 03:12:23;;;;;;;13.15;8.15;;;;;;;-0.6;100;94840.06;;;;
2021/01/26 03:13:30;;;;;;;13.15;8.15;;;;;;;-0.6;100;94840.06;;;;
2021/01/26 03:14:35;;;;;;;13.15;8.15;;;;;;;-0.6;100;94840.06;;;;
2021/01/26 03:15:40;;;;;;;13.15;8.15;;;;;;;-0.6;100;94840.06;;;;
2021/01/26 03:16:46;;;;;;;13.15;8.15;;;;;;;-0.6;100;94840.06;;;;
2021/01/26 03:17:55;;;;;;;13.15;8.15;;;;;;;-0.6;100;94840.06;;;;
2021/01/26 03:18:59;;;;;;;12.15;8.299998;;;;;;;-0.66;100;94862.87;;;;
2021/01/26 03:20:06;;;;;;;12.15;8.299998;;;;;;;-0.66;100;94862.87;;;;
2021/01/26 03:21:15;;;;;;;12.15;8.299998;;;;;;;-0.66;100;94862.87;;;;
2021/01/26 03:22:19;;;;;;;12.15;8.299998;;;;;;;-0.66;100;94862.87;;;;
2021/01/26 03:23:24;;;;;;;12.15;8.299998;;;;;;;-0.66;100;94862.87;;;;
2021/01/26 03:24:33;;;;;;;12.15;8.299998;;;;;;;-0.66;100;94862.87;;;;
2021/01/26 03:25:38;;;;;;;12.15;8.299998;;;;;;;-0.66;100;94862.87;;;;
2021/01/26 03:26:42;;;;;;;12.15;8.299998;;;;;;;-0.66;100;94862.87;;;;
2021/01/26 03:27:44;;;;;;;12.15;8.299998;;;;;;;-0.66;100;94862.87;;;;
2021/01/26 03:28:46;;;;;;;12.15;8.299998;;;;;;;-0.66;100;94862.87;;;;
2021/01/26 03:29:52;;;;;;;13.9;8.849999;;;;;;;-0.61;100;94875.92;;;;
2021/01/26 03:30:56;;;;;;;13.9;8.849999;;;;;;;-0.61;100;94875.92;;;;
2021/01/26 03:31:59;;;;;;;13.9;8.849999;;;;;;;-0.61;100;94875.92;;;;
2021/01/26 03:33:05;;;;;;;13.9;8.849999;;;;;;;-0.61;100;94875.92;;;;
2021/01/26 03:34:11;;;;;;;13.9;8.849999;;;;;;;-0.61;100;94875.92;;;;
2021/01/26 03:35:11;;;;;;;13.9;8.849999;;;;;;;-0.61;100;94875.92;;;;
2021/01/26 03:36:14;;;;;;;13.9;8.849999;;;;;;;-0.61;100;94875.92;;;;
2021/01/26 03:37:14;;;;;;;13.9;8.849999;;;;;;;-0.61;100;94875.92;;;;
2021/01/26 03:38:16;;;;;;;13.9;8.849999;;;;;;;-0.61;100;94875.92;;;;
2021/01/26 03:39:20;;;;;;;13.9;8.849999;;;;;;;-0.61;100;94875.92;;;;
2021/01/26 03:40:20;;;;;;;14.8;9.050002;;;;;;;-0.57;100;94892.3;;;;
2021/01/26 03:41:21;;;;;;;14.8;9.050002;;;;;;;-0.57;100;94892.3;;;;
2021/01/26 03:42:22;;;;;;;14.8;9.050002;;;;;;;-0.57;100;94892.3;;;;
2021/01/26 03:43:25;;;;;;;14.8;9.050002;;;;;;;-0.57;100;94892.3;;;;
2021/01/26 03:44:26;;;;;;;14.8;9.050002;;;;;;;-0.57;100;94892.3;;;;
2021/01/26 03:45:27;;;;;;;14.8;9.050002;;;;;;;-0.57;100;94892.3;;;;
2021/01/26 03:46:28;;;;;;;14.8;9.050002;;;;;;;-0.57;100;94892.3;;;;
2021/01/26 03:47:43;;;;;;;14.8;9.050002;;;;;;;-0.57;100;94892.3;;;;
2021/01/26 03:49:00;;;;;;;14.8;9.050002;;;;;;;-0.57;100;94892.3;;;;
2021/01/26 03:50:14;;;;;;;14.25;9;;;;;;;-0.55;100;94900.41;;;;
2021/01/26 03:51:29;;;;;;;14.25;9;;;;;;;-0.55;100;94900.41;;;;
2021/01/26 03:52:44;;;;;;;14.25;9;;;;;;;-0.55;100;94900.41;;;;
2021/01/26 03:54:01;;;;;;;14.25;9;;;;;;;-0.55;100;94900.41;;;;
2021/01/26 03:55:17;;;;;;;14.25;9;;;;;;;-0.55;100;94900.41;;;;
2021/01/26 03:56:27;;;;;;;14.25;9;;;;;;;-0.55;100;94900.41;;;;
2021/01/26 03:57:43;;;;;;;14.25;9;;;;;;;-0.55;100;94900.41;;;;
2021/01/26 03:59:00;;;;;;;14.25;9;;;;;;;-0.55;100;94900.41;;;;
2021/01/26 04:00:15;;;;;;;14.25;9;;;;;;;-0.55;100;94900.41;;;;
2021/01/26 04:01:29;;;;;;;13.8;9.200001;;;;;;;-0.63;100;94905.75;;;;
2021/01/26 04:02:38;;;;;;;13.8;9.200001;;;;;;;-0.63;100;94905.75;;;;
2021/01/26 04:03:54;;;;;;;13.8;9.200001;;;;;;;-0.63;100;94905.75;;;;
2021/01/26 04:05:02;;;;;;;13.8;9.200001;;;;;;;-0.63;100;94905.75;;;;
2021/01/26 04:06:10;;;;;;;13.8;9.200001;;;;;;;-0.63;100;94905.75;;;;
2021/01/26 04:07:20;;;;;;;13.8;9.200001;;;;;;;-0.63;100;94905.75;;;;
2021/01/26 04:08:29;;;;;;;13.8;9.200001;;;;;;;-0.63;100;94905.75;;;;
2021/01/26 04:09:34;;;;;;;13.8;9.200001;;;;;;;-0.63;100;94905.75;;;;
2021/01/26 04:10:40;;;;;;;13.8;9.200001;;;;;;;-0.63;100;94905.75;;;;
2021/01/26 04:11:50;;;;;;;12.75;7.9;;;;;;;-0.8;100;94926.76;;;;
2021/01/26 04:12:56;;;;;;;12.75;7.9;;;;;;;-0.8;100;94926.76;;;;
2021/01/26 04:14:01;;;;;;;12.75;7.9;;;;;;;-0.8;100;94926.76;;;;
2021/01/26 04:15:05;;;;;;;12.75;7.9;;;;;;;-0.8;100;94926.76;;;;
2021/01/26 04:16:09;;;;;;;12.75;7.9;;;;;;;-0.8;100;94926.76;;;;
2021/01/26 04:17:13;;;;;;;12.75;7.9;;;;;;;-0.8;100;94926.76;;;;
2021/01/26 04:18:18;;;;;;;12.75;7.9;;;;;;;-0.8;100;94926.76;;;;
2021/01/26 04:19:25;;;;;;;12.75;7.9;;;;;;;-0.8;100;94926.76;;;;
2021/01/26 04:20:29;;;;;;;12.75;7.9;;;;;;;-0.8;100;94926.76;;;;
2021/01/26 04:21:34;;;;;;;12.75;7.9;;;;;;;-0.8;100;94926.76;;;;
2021/01/26 04:22:38;;;;;;;12.8;8.1;;;;;;;-0.99;100;94929.05;;;;
2021/01/26 04:23:39;;;;;;;12.8;8.1;;;;;;;-0.99;100;94929.05;;;;
2021/01/26 04:24:41;;;;;;;12.8;8.1;;;;;;;-0.99;100;94929.05;;;;
2021/01/26 04:25:42;;;;;;;12.8;8.1;;;;;;;-0.99;100;94929.05;;;;
2021/01/26 04:26:45;;;;;;;12.8;8.1;;;;;;;-0.99;100;94929.05;;;;
2021/01/26 04:27:48;;;;;;;12.8;8.1;;;;;;;-0.99;100;94929.05;;;;
2021/01/26 04:28:49;;;;;;;12.8;8.1;;;;;;;-0.99;100;94929.05;;;;
2021/01/26 04:29:49;;;;;;;12.8;8.1;;;;;;;-0.99;100;94929.05;;;;
2021/01/26 04:30:51;;;;;;;12.8;8.1;;;;;;;-0.99;100;94929.05;;;;
2021/01/26 04:31:51;;;;;;;12.8;8.1;;;;;;;-0.99;100;94929.05;;;;
2021/01/26 04:32:52;;;;;;;12.8;8.1;;;;;;;-0.99;100;94929.05;;;;
2021/01/26 04:33:57;;;;;;;11.5;7.4;;;;;;;-1.36;100;94935.5;;;;
2021/01/26 04:34:57;;;;;;;11.5;7.4;;;;;;;-1.36;100;94935.5;;;;
2021/01/26 04:35:58;;;;;;;11.5;7.4;;;;;;;-1.36;100;94935.5;;;;
2021/01/26 04:36:58;;;;;;;11.5;7.4;;;;;;;-1.36;100;94935.5;;;;
2021/01/26 04:37:59;;;;;;;11.5;7.4;;;;;;;-1.36;100;94935.5;;;;
2021/01/26 04:38:59;;;;;;;11.5;7.4;;;;;;;-1.36;100;94935.5;;;;
2021/01/26 04:40:00;;;;;;;11.5;7.4;;;;;;;-1.36;100;94935.5;;;;
2021/01/26 04:41:01;;;;;;;11.5;7.4;;;;;;;-1.36;100;94935.5;;;;
2021/01/26 04:42:09;;;;;;;11.5;7.4;;;;;;;-1.36;100;94935.5;;;;
2021/01/26 04:43:15;;;;;;;11.5;7.4;;;;;;;-1.36;100;94935.5;;;;
2021/01/26 04:44:28;;;;;;;12.6;7.5;;;;;;;-1.6;100;94936.42;;;;
2021/01/26 04:45:50;;;;;;;12.6;7.5;;;;;;;-1.6;100;94936.42;;;;
2021/01/26 04:47:00;;;;;;;12.6;7.5;;;;;;;-1.6;100;94936.42;;;;
2021/01/26 04:48:10;;;;;;;12.6;7.5;;;;;;;-1.6;100;94936.42;;;;
2021/01/26 04:49:15;;;;;;;12.6;7.5;;;;;;;-1.6;100;94936.42;;;;
2021/01/26 04:50:20;;;;;;;12.6;7.5;;;;;;;-1.6;100;94936.42;;;;
2021/01/26 04:51:28;;;;;;;12.6;7.5;;;;;;;-1.6;100;94936.42;;;;
2021/01/26 04:52:39;;;;;;;12.6;7.5;;;;;;;-1.6;100;94936.42;;;;
2021/01/26 04:54:02;;;;;;;12.6;7.5;;;;;;;-1.6;100;94936.42;;;;
2021/01/26 04:55:30;;;;;;;13.1;7.649999;;;;;;;-1.66;100;94947.71;;;;
2021/01/26 04:56:45;;;;;;;13.1;7.649999;;;;;;;-1.66;100;94947.71;;;;
2021/01/26 04:57:55;;;;;;;13.1;7.649999;;;;;;;-1.66;100;94947.71;;;;
2021/01/26 04:59:11;;;;;;;13.1;7.649999;;;;;;;-1.66;100;94947.71;;;;
2021/01/26 05:00:27;;;;;;;13.1;7.649999;;;;;;;-1.66;100;94947.71;;;;
2021/01/26 05:01:37;;;;;;;13.1;7.649999;;;;;;;-1.66;100;94947.71;;;;
2021/01/26 05:02:56;;;;;;;13.1;7.649999;;;;;;;-1.66;100;94947.71;;;;
2021/01/26 05:04:53;;;;;;;13.1;7.649999;;;;;;;-1.66;100;94947.71;;;;
2021/01/26 05:06:00;;;;;;;13.75;7.4;;;;;;;-1.64;100;94944.4;;;;
2021/01/26 05:07:04;;;;;;;13.75;7.4;;;;;;;-1.64;100;94944.4;;;;
2021/01/26 05:08:11;;;;;;;13.75;7.4;;;;;;;-1.64;100;94944.4;;;;
2021/01/26 05:09:16;;;;;;;13.75;7.4;;;;;;;-1.64;100;94944.4;;;;
2021/01/26 05:10:21;;;;;;;13.75;7.4;;;;;;;-1.64;100;94944.4;;;;
2021/01/26 05:11:26;;;;;;;13.75;7.4;;;;;;;-1.64;100;94944.4;;;;
2021/01/26 05:12:31;;;;;;;13.75;7.4;;;;;;;-1.64;100;94944.4;;;;
2021/01/26 05:13:39;;;;;;;13.75;7.4;;;;;;;-1.64;100;94944.4;;;;
2021/01/26 05:14:42;;;;;;;13.75;7.4;;;;;;;-1.64;100;94944.4;;;;
2021/01/26 05:15:49;;;;;;;13.6;8.15;;;;;;;-1.52;100;94961.13;;;;
2021/01/26 05:16:57;;;;;;;13.6;8.15;;;;;;;-1.52;100;94961.13;;;;
2021/01/26 05:18:04;;;;;;;13.6;8.15;;;;;;;-1.52;100;94961.13;;;;
2021/01/26 05:19:09;;;;;;;13.6;8.15;;;;;;;-1.52;100;94961.13;;;;
2021/01/26 05:20:14;;;;;;;13.6;8.15;;;;;;;-1.52;100;94961.13;;;;
2021/01/26 05:21:19;;;;;;;13.6;8.15;;;;;;;-1.52;100;94961.13;;;;
2021/01/26 05:22:28;;;;;;;13.6;8.15;;;;;;;-1.52;100;94961.13;;;;
2021/01/26 05:23:38;;;;;;;13.6;8.15;;;;;;;-1.52;100;94961.13;;;;
2021/01/26 05:24:43;;;;;;;13.6;8.15;;;;;;;-1.52;100;94961.13;;;;
2021/01/26 05:25:49;;;;;;;13.6;8.15;;;;;;;-1.52;100;94961.13;;;;
2021/01/26 05:26:50;;;;;;;10.05;6.75;;;;;;;-1.49;100;94964.75;;;;
2021/01/26 05:27:50;;;;;;;10.05;6.75;;;;;;;-1.49;100;94964.75;;;;
2021/01/26 05:28:52;;;;;;;10.05;6.75;;;;;;;-1.49;100;94964.75;;;;
2021/01/26 05:29:52;;;;;;;10.05;6.75;;;;;;;-1.49;100;94964.75;;;;
2021/01/26 05:30:55;;;;;;;10.05;6.75;;;;;;;-1.49;100;94964.75;;;;
2021/01/26 05:31:55;;;;;;;10.05;6.75;;;;;;;-1.49;100;94964.75;;;;
2021/01/26 05:32:59;;;;;;;10.05;6.75;;;;;;;-1.49;100;94964.75;;;;
2021/01/26 05:34:04;;;;;;;10.05;6.75;;;;;;;-1.49;100;94964.75;;;;
2021/01/26 05:35:08;;;;;;;10.05;6.75;;;;;;;-1.49;100;94964.75;;;;
2021/01/26 05:36:09;;;;;;;10.05;6.75;;;;;;;-1.49;100;94964.75;;;;
2021/01/26 05:37:11;;;;;;;12.55;7.249999;;;;;;;-1.52;100;94972.63;;;;
2021/01/26 05:38:14;;;;;;;12.55;7.249999;;;;;;;-1.52;100;94972.63;;;;
2021/01/26 05:39:16;;;;;;;12.55;7.249999;;;;;;;-1.52;100;94972.63;;;;
2021/01/26 05:40:21;;;;;;;12.55;7.249999;;;;;;;-1.52;100;94972.63;;;;
2021/01/26 05:41:24;;;;;;;12.55;7.249999;;;;;;;-1.52;100;94972.63;;;;
2021/01/26 05:42:25;;;;;;;12.55;7.249999;;;;;;;-1.52;100;94972.63;;;;
2021/01/26 05:43:27;;;;;;;12.55;7.249999;;;;;;;-1.52;100;94972.63;;;;
2021/01/26 05:44:31;;;;;;;12.55;7.249999;;;;;;;-1.52;100;94972.63;;;;
2021/01/26 05:45:35;;;;;;;12.55;7.249999;;;;;;;-1.52;100;94972.63;;;;
2021/01/26 05:46:39;;;;;;;12.55;7.249999;;;;;;;-1.52;100;94972.63;;;;
2021/01/26 05:47:43;;;;;;;13.35;8.1;;;;;;;-1.53;100;94982.79;;;;
2021/01/26 05:48:44;;;;;;;13.35;8.1;;;;;;;-1.53;100;94982.79;;;;
2021/01/26 05:49:47;;;;;;;13.35;8.1;;;;;;;-1.53;100;94982.79;;;;
2021/01/26 05:50:47;;;;;;;13.35;8.1;;;;;;;-1.53;100;94982.79;;;;
2021/01/26 05:51:50;;;;;;;13.35;8.1;;;;;;;-1.53;100;94982.79;;;;
2021/01/26 05:52:53;;;;;;;13.35;8.1;;;;;;;-1.53;100;94982.79;;;;
2021/01/26 05:53:55;;;;;;;13.35;8.1;;;;;;;-1.53;100;94982.79;;;;
2021/01/26 05:55:00;;;;;;;13.35;8.1;;;;;;;-1.53;100;94982.79;;;;
2021/01/26 05:56:09;;;;;;;13.35;8.1;;;;;;;-1.53;100;94982.79;;;;
2021/01/26 05:57:14;;;;;;;13.35;8.1;;;;;;;-1.53;100;94982.79;;;;
2021/01/26 05:58:25;;;;;;;10.75;6.5;;;;;;;-1.49;100;94986.77;;;;
2021/01/26 05:59:27;;;;;;;10.75;6.5;;;;;;;-1.49;100;94986.77;;;;
2021/01/26 06:00:31;;;;;;;10.75;6.5;;;;;;;-1.49;100;94986.77;;;;
2021/01/26 06:01:32;;;;;;;10.75;6.5;;;;;;;-1.49;100;94986.77;;;;
2021/01/26 06:02:32;;;;;;;10.75;6.5;;;;;;;-1.49;100;94986.77;;;;
2021/01/26 06:03:33;;;;;;;10.75;6.5;;;;;;;-1.49;100;94986.77;;;;
2021/01/26 06:04:35;;;;;;;10.75;6.5;;;;;;;-1.49;100;94986.77;;;;
2021/01/26 06:05:35;;;;;;;10.75;6.5;;;;;;;-1.49;100;94986.77;;;;
2021/01/26 06:06:36;;;;;;;10.75;6.5;;;;;;;-1.49;100;94986.77;;;;
2021/01/26 06:07:55;;;;;;;10.75;6.5;;;;;;;-1.49;100;94986.77;;;;
2021/01/26 06:09:07;;;;;;;10.45;6.5;;;;;;;-1.46;100;94989.17;;;;
2021/01/26 06:10:07;;;;;;;10.45;6.5;;;;;;;-1.46;100;94989.17;;;;
2021/01/26 06:11:18;;;;;;;10.45;6.5;;;;;;;-1.46;100;94989.17;;;;
2021/01/26 06:12:20;;;;;;;10.45;6.5;;;;;;;-1.46;100;94989.17;;;;
2021/01/26 06:13:23;;;;;;;10.45;6.5;;;;;;;-1.46;100;94989.17;;;;
2021/01/26 06:14:27;;;;;;;10.45;6.5;;;;;;;-1.46;100;94989.17;;;;
2021/01/26 06:15:27;;;;;;;10.45;6.5;;;;;;;-1.46;100;94989.17;;;;
2021/01/26 06:16:31;;;;;;;10.45;6.5;;;;;;;-1.46;100;94989.17;;;;
2021/01/26 06:17:32;;;;;;;10.45;6.5;;;;;;;-1.46;100;94989.17;;;;
2021/01/26 06:18:35;;;;;;;10.45;6.5;;;;;;;-1.46;100;94989.17;;;;
2021/01/26 06:19:35;;;;;;;10.45;6.5;;;;;;;-1.46;100;94989.17;;;;
2021/01/26 06:20:38;;;;;;;10.7;7.150001;;;;;;;-1.48;100;94997.77;;;;
2021/01/26 06:21:40;;;;;;;10.7;7.150001;;;;;;;-1.48;100;94997.77;;;;
2021/01/26 06:22:46;;;;;;;10.7;7.150001;;;;;;;-1.48;100;94997.77;;;;
2021/01/26 06:23:48;;;;;;;10.7;7.150001;;;;;;;-1.48;100;94997.77;;;;
2021/01/26 06:24:48;;;;;;;10.7;7.150001;;;;;;;-1.48;100;94997.77;;;;
2021/01/26 06:25:52;;;;;;;10.7;7.150001;;;;;;;-1.48;100;94997.77;;;;
2021/01/26 06:26:57;;;;;;;10.7;7.150001;;;;;;;-1.48;100;94997.77;;;;
2021/01/26 06:28:24;;;;;;;10.7;7.150001;;;;;;;-1.48;100;94997.77;;;;